Time;durP1;ratioP1;P1;durP2;ratioP2;P2;SDS_P1;SDS_P2;PMS_P1;PMS_P2;Temp;Humidity;BMP_temperature;BMP_pressure;BME280_temperature;BME280_humidity;BME280_pressure;Samples;Min_cycle;Max_cycle;Signal;HPM_P1;HPM_P2
2022/07/21 00:01:09;;;;;;;18.98;11.95;;;;;;;18.87;100.00;99018.13;5048627;28;20106;-69
2022/07/21 00:03:35;;;;;;;15.98;10.85;;;;;;;18.88;100.00;99022.50;5052051;28;20025;-69
2022/07/21 00:06:01;;;;;;;19.02;12.27;;;;;;;18.77;100.00;99007.81;5050803;28;20470;-69
2022/07/21 00:08:26;;;;;;;20.50;12.50;;;;;;;18.84;100.00;99013.16;5051652;28;20040;-68
2022/07/21 00:10:52;;;;;;;17.38;12.00;;;;;;;18.93;100.00;99017.09;5048297;28;20114;-69
2022/07/21 00:13:18;;;;;;;16.48;12.50;;;;;;;18.79;100.00;98993.88;5050851;28;20094;-69
2022/07/21 00:15:43;;;;;;;17.10;11.60;;;;;;;18.90;100.00;98994.84;5053279;28;20071;-69
2022/07/21 00:18:08;;;;;;;17.77;12.63;;;;;;;18.94;100.00;98998.72;5052940;28;20033;-69
2022/07/21 00:20:34;;;;;;;19.17;12.32;;;;;;;18.92;100.00;98981.72;5049535;28;20025;-69
2022/07/21 00:22:59;;;;;;;21.17;12.70;;;;;;;18.85;100.00;98992.88;5049181;28;20028;-70
2022/07/21 00:25:25;;;;;;;20.42;12.35;;;;;;;18.82;100.00;98994.19;5049057;28;20033;-69
2022/07/21 00:27:51;;;;;;;15.70;11.52;;;;;;;18.75;100.00;98985.31;5048988;28;20042;-69
2022/07/21 00:30:16;;;;;;;20.60;13.40;;;;;;;18.75;100.00;98987.22;5052434;28;20021;-69
2022/07/21 00:32:42;;;;;;;16.63;11.70;;;;;;;18.67;100.00;98980.25;5046647;28;20056;-69
2022/07/21 00:35:09;;;;;;;17.88;12.02;;;;;;;18.64;100.00;98985.41;5048902;28;20041;-69
2022/07/21 00:37:35;;;;;;;19.58;13.27;;;;;;;18.62;100.00;98996.59;5049188;28;20029;-69
2022/07/21 00:40:01;;;;;;;16.75;12.82;;;;;;;18.66;100.00;99010.66;5050877;28;20397;-68
2022/07/21 00:42:29;;;;;;;17.83;13.48;;;;;;;18.56;100.00;98989.41;5047971;28;20024;-68
2022/07/21 00:44:55;;;;;;;16.95;13.27;;;;;;;18.68;100.00;98992.03;5051196;28;20478;-69
2022/07/21 00:47:27;;;;;;;19.98;13.00;;;;;;;18.73;100.00;98997.59;5043938;28;20429;-69
2022/07/21 00:49:53;;;;;;;19.42;12.77;;;;;;;18.86;100.00;99012.88;5046979;28;20100;-69
2022/07/21 00:52:18;;;;;;;19.33;12.90;;;;;;;18.92;100.00;99025.59;5047628;28;20125;-69
2022/07/21 00:54:44;;;;;;;21.85;12.90;;;;;;;19.05;100.00;99031.53;5050550;28;20524;-69
2022/07/21 00:57:11;;;;;;;16.67;11.07;;;;;;;19.11;100.00;99034.34;5046970;28;20036;-69
2022/07/21 00:59:37;;;;;;;16.20;11.35;;;;;;;19.19;100.00;99033.91;5046879;28;20029;-69
2022/07/21 01:02:03;;;;;;;21.88;11.73;;;;;;;19.29;100.00;99034.03;5047078;28;20035;-68
2022/07/21 01:04:28;;;;;;;15.95;11.48;;;;;;;19.38;100.00;99016.03;5046625;28;20128;-69
2022/07/21 01:06:54;;;;;;;20.52;10.93;;;;;;;19.33;100.00;98996.78;5045198;28;20108;-69
2022/07/21 01:09:21;;;;;;;14.82;11.50;;;;;;;19.47;100.00;99010.94;5048487;28;20120;-69
2022/07/21 01:11:47;;;;;;;16.58;11.27;;;;;;;19.31;100.00;98989.88;5046202;28;20409;-69
2022/07/21 01:14:13;;;;;;;17.10;11.05;;;;;;;19.40;100.00;98983.69;5049114;28;20037;-69
2022/07/21 01:16:40;;;;;;;14.07;10.68;;;;;;;19.60;100.00;98988.59;5050235;28;20029;-69
2022/07/21 01:19:06;;;;;;;15.68;11.18;;;;;;;19.60;100.00;99001.50;5049526;28;20094;-69
2022/07/21 01:21:35;;;;;;;18.48;11.60;;;;;;;19.58;100.00;99011.91;5049565;28;20593;-69
2022/07/21 01:24:01;;;;;;;18.80;11.43;;;;;;;19.46;100.00;99015.59;5048073;28;20064;-69
2022/07/21 01:26:26;;;;;;;19.00;11.73;;;;;;;19.48;100.00;99007.94;5047897;28;20082;-69
2022/07/21 01:28:52;;;;;;;18.42;11.27;;;;;;;19.43;100.00;99007.88;5049437;28;20033;-69
2022/07/21 01:31:18;;;;;;;20.40;12.38;;;;;;;19.45;100.00;99002.97;5051334;28;20071;-69
2022/07/21 01:33:43;;;;;;;16.73;11.13;;;;;;;19.44;100.00;99014.19;5044429;28;20055;-69
2022/07/21 01:36:09;;;;;;;17.15;10.93;;;;;;;19.37;100.00;99010.81;5044628;28;20025;-69
2022/07/21 01:41:30;;;;;;;15.48;11.23;;;;;;;19.34;100.00;99023.13;5048122;28;20090;-69
2022/07/21 01:43:58;;;;;;;15.88;12.38;;;;;;;19.27;100.00;98998.63;5045682;28;20025;-69
2022/07/21 01:46:24;;;;;;;15.15;11.60;;;;;;;19.29;100.00;99020.31;5048208;28;20052;-69
2022/07/21 01:48:49;;;;;;;15.63;11.52;;;;;;;19.29;100.00;99020.31;5046609;28;20024;-68
2022/07/21 01:51:14;;;;;;;16.48;12.20;;;;;;;19.26;100.00;99031.81;5050976;28;20497;-68
2022/07/21 01:53:40;;;;;;;16.45;12.63;;;;;;;19.17;100.00;99028.66;5049692;28;20095;-69
2022/07/21 01:56:06;;;;;;;17.55;12.13;;;;;;;19.13;100.00;99027.53;5043205;28;20025;-68
2022/07/21 01:58:32;;;;;;;17.20;12.40;;;;;;;19.07;100.00;99027.69;5048041;28;20103;-69
2022/07/21 02:00:57;;;;;;;16.50;12.18;;;;;;;19.00;100.00;99034.22;5049983;28;20454;-69
2022/07/21 02:03:23;;;;;;;15.93;11.50;;;;;;;19.02;100.00;99033.94;5037510;28;20060;-69
2022/07/21 02:05:48;;;;;;;20.27;13.27;;;;;;;19.05;100.00;99045.25;5046659;28;20138;-69
2022/07/21 02:08:13;;;;;;;17.52;11.80;;;;;;;19.06;100.00;99043.34;5044402;28;20033;-69
2022/07/21 02:10:38;;;;;;;18.42;12.18;;;;;;;19.11;100.00;99042.56;5048592;28;20067;-69
2022/07/21 02:13:04;;;;;;;20.20;13.43;;;;;;;19.17;100.00;99056.09;5046242;28;20079;-69
2022/07/21 02:15:30;;;;;;;19.65;12.82;;;;;;;19.20;100.00;99052.00;5048144;28;20071;-69
2022/07/21 02:17:56;;;;;;;22.13;13.32;;;;;;;19.15;100.00;99051.94;5044066;28;20078;-69
2022/07/21 02:20:22;;;;;;;18.63;13.60;;;;;;;19.19;100.00;99064.09;5043691;28;20028;-69
2022/07/21 02:22:47;;;;;;;21.55;13.43;;;;;;;19.24;100.00;99083.34;5049903;28;20432;-70
2022/07/21 02:25:13;;;;;;;23.52;13.48;;;;;;;19.29;100.00;99079.84;5064861;22;20032;-66
2022/07/21 02:27:39;;;;;;;16.85;13.43;;;;;;;19.27;100.00;99069.13;5048619;28;20700;-66
2022/07/21 02:30:04;;;;;;;19.92;14.35;;;;;;;19.24;100.00;99064.16;5045233;28;20082;-67
2022/07/21 02:32:30;;;;;;;22.55;13.88;;;;;;;19.10;100.00;99057.34;5043015;28;20100;-66
2022/07/21 02:34:55;;;;;;;22.50;13.98;;;;;;;19.13;100.00;99054.97;5052219;28;20115;-66
2022/07/21 02:37:21;;;;;;;22.77;14.52;;;;;;;19.09;100.00;99047.47;5062923;28;20122;-66
2022/07/21 02:39:46;;;;;;;22.48;15.07;;;;;;;19.13;100.00;99060.44;5067254;28;20024;-66
2022/07/21 02:42:12;;;;;;;23.67;13.88;;;;;;;19.12;100.00;99060.69;5065544;28;20032;-66
2022/07/21 02:44:37;;;;;;;21.80;15.07;;;;;;;19.14;100.00;99069.50;5059496;28;20028;-66
2022/07/21 02:47:03;;;;;;;21.25;14.30;;;;;;;19.12;100.00;99066.16;5058315;28;20121;-66
2022/07/21 02:49:28;;;;;;;19.23;14.57;;;;;;;19.08;100.00;99059.53;5071409;28;20477;-66
2022/07/21 02:51:54;;;;;;;21.63;14.82;;;;;;;19.14;100.00;99077.72;5062697;28;20116;-66
2022/07/21 02:54:19;;;;;;;21.48;14.35;;;;;;;19.13;100.00;99076.06;5064078;28;20020;-66
2022/07/21 02:56:44;;;;;;;21.80;15.27;;;;;;;19.13;100.00;99073.34;5067665;28;20024;-68
2022/07/21 02:59:10;;;;;;;18.45;14.07;;;;;;;19.12;100.00;99075.22;5066851;28;20100;-66
2022/07/21 03:01:35;;;;;;;22.60;15.40;;;;;;;19.10;100.00;99074.66;5059694;28;20062;-66
2022/07/21 03:04:00;;;;;;;19.65;14.57;;;;;;;19.04;100.00;99071.00;5063236;28;20030;-66
2022/07/21 03:06:25;;;;;;;21.58;13.30;;;;;;;18.96;100.00;99062.38;5063844;28;20012;-66
2022/07/21 03:08:51;;;;;;;23.17;15.35;;;;;;;18.97;100.00;99064.88;5065277;28;20111;-66
2022/07/21 03:11:16;;;;;;;21.52;14.57;;;;;;;19.05;100.00;99085.56;5073994;28;20066;-66
2022/07/21 03:13:41;;;;;;;22.52;14.98;;;;;;;19.07;100.00;99082.53;5069222;28;20662;-66
2022/07/21 03:16:07;;;;;;;25.08;15.38;;;;;;;19.10;100.00;99082.03;5060052;28;20029;-66
2022/07/21 03:18:32;;;;;;;22.13;15.40;;;;;;;19.04;100.00;99083.88;5065302;28;20050;-67
2022/07/21 03:20:58;;;;;;;21.75;15.27;;;;;;;19.12;100.00;99068.91;5067202;28;20016;-66
2022/07/21 03:23:23;;;;;;;22.52;14.95;;;;;;;19.19;100.00;99088.78;5062307;28;20532;-66
2022/07/21 03:25:48;;;;;;;18.77;13.77;;;;;;;19.21;100.00;99094.84;5061108;28;20024;-66
2022/07/21 03:28:14;;;;;;;21.52;15.85;;;;;;;19.22;100.00;99097.31;5068480;28;20425;-68
2022/07/21 03:30:40;;;;;;;22.85;14.32;;;;;;;19.20;100.00;99095.91;5060110;28;20103;-67
2022/07/21 03:33:06;;;;;;;20.38;15.20;;;;;;;19.21;100.00;99109.38;5060253;28;20117;-65
2022/07/21 03:35:31;;;;;;;20.20;14.82;;;;;;;19.23;100.00;99088.03;5067674;28;20024;-65
2022/07/21 03:37:59;;;;;;;18.95;14.73;;;;;;;19.25;100.00;99112.44;5070874;28;20100;-66
2022/07/21 03:40:27;;;;;;;18.10;14.23;;;;;;;19.20;100.00;99115.09;5060413;28;22423;-65
2022/07/21 03:42:54;;;;;;;19.27;13.38;;;;;;;19.21;100.00;99103.88;5064779;28;20448;-66
2022/07/21 03:45:20;;;;;;;22.95;12.98;;;;;;;19.24;100.00;99108.03;5056907;28;20017;-65
2022/07/21 03:47:46;;;;;;;21.20;12.68;;;;;;;19.25;100.00;99095.97;5069918;28;20512;-66
2022/07/21 03:50:12;;;;;;;19.38;12.13;;;;;;;19.27;100.00;99104.78;5065340;28;20543;-66
2022/07/21 03:52:38;;;;;;;18.90;12.20;;;;;;;19.24;100.00;99103.38;5065505;28;20222;-67
2022/07/21 03:55:09;;;;;;;21.10;13.38;;;;;;;19.25;100.00;99095.97;5074244;28;20055;-66
2022/07/21 03:57:40;;;;;;;17.85;12.55;;;;;;;19.29;100.00;99119.09;5075182;28;20412;-68
2022/07/21 04:00:09;;;;;;;16.30;11.63;;;;;;;19.32;100.00;99118.56;5078813;28;20318;-66
2022/07/21 04:02:34;;;;;;;17.10;11.75;;;;;;;19.30;100.00;99106.19;5082319;28;20028;-69
2022/07/21 04:05:00;;;;;;;15.77;11.25;;;;;;;19.37;100.00;99107.69;5074212;28;20378;-66
2022/07/21 04:07:25;;;;;;;15.90;10.98;;;;;;;19.34;100.00;99112.84;5076899;28;20494;-66
2022/07/21 04:09:51;;;;;;;15.95;11.25;;;;;;;19.30;100.00;99112.50;5057388;28;20028;-66
2022/07/21 04:12:16;;;;;;;21.13;11.65;;;;;;;19.41;100.00;99110.72;5056163;28;20105;-65
2022/07/21 04:14:41;;;;;;;25.67;10.85;;;;;;;19.45;100.00;99117.38;5060960;28;20044;-66
2022/07/21 04:17:07;;;;;;;18.35;11.18;;;;;;;19.40;100.00;99117.31;5069189;28;20028;-66
2022/07/21 04:19:32;;;;;;;17.17;11.30;;;;;;;19.36;100.00;99116.16;5069539;28;20040;-66
2022/07/21 04:21:58;;;;;;;16.90;11.23;;;;;;;19.41;100.00;99125.31;5060474;28;20114;-66
2022/07/21 04:24:23;;;;;;;15.10;10.25;;;;;;;19.43;100.00;99125.03;5063698;28;20024;-66
2022/07/21 04:26:48;;;;;;;15.60;11.05;;;;;;;19.41;100.00;99127.19;5066206;28;20024;-66
2022/07/21 04:29:14;;;;;;;17.90;11.02;;;;;;;19.33;100.00;99131.19;5063282;28;20021;-66
2022/07/21 04:31:39;;;;;;;14.25;10.80;;;;;;;19.45;100.00;99129.19;5067807;28;20052;-66
2022/07/21 04:34:04;;;;;;;19.50;11.70;;;;;;;19.47;100.00;99128.94;5063252;28;20377;-66
2022/07/21 04:36:30;;;;;;;21.27;11.70;;;;;;;19.49;100.00;99138.59;5073123;28;20528;-66
2022/07/21 04:38:55;;;;;;;18.60;11.68;;;;;;;19.56;100.00;99132.06;5061936;28;20025;-66
2022/07/21 04:41:20;;;;;;;15.93;11.15;;;;;;;19.57;100.00;99142.81;5063354;28;20031;-66
2022/07/21 04:43:45;;;;;;;19.05;11.30;;;;;;;19.54;100.00;99131.50;5063030;28;20021;-65
2022/07/21 04:46:11;;;;;;;14.63;10.82;;;;;;;19.59;100.00;99140.63;5056219;28;20029;-66
2022/07/21 04:48:36;;;;;;;14.52;11.40;;;;;;;19.58;100.00;99136.22;5066528;28;20024;-66
2022/07/21 04:51:01;;;;;;;13.93;11.05;;;;;;;19.62;100.00;99139.28;5072436;28;20043;-66
2022/07/21 04:53:27;;;;;;;12.75;10.20;;;;;;;19.69;100.00;99150.94;5068657;28;20474;-66
2022/07/21 04:55:52;;;;;;;14.70;10.75;;;;;;;19.52;100.00;99145.47;5066859;28;20032;-66
2022/07/21 04:58:17;;;;;;;14.75;10.32;;;;;;;19.49;100.00;99141.34;5063389;28;20024;-66
2022/07/21 05:00:43;;;;;;;18.75;11.43;;;;;;;19.54;100.00;99158.94;5058837;28;20033;-66
2022/07/21 05:03:08;;;;;;;12.23;10.10;;;;;;;19.53;100.00;99151.78;5063090;28;20056;-69
2022/07/21 05:05:33;;;;;;;16.40;10.70;;;;;;;19.44;100.00;99141.25;5063594;28;20043;-64
2022/07/21 05:07:58;;;;;;;12.40;10.27;;;;;;;19.43;100.00;99141.50;5060430;28;20096;-64
2022/07/21 05:10:24;;;;;;;14.25;11.13;;;;;;;19.48;100.00;99139.66;5059576;28;20040;-65
2022/07/21 05:12:49;;;;;;;16.55;11.15;;;;;;;19.60;100.00;99152.44;5060548;28;20021;-64
2022/07/21 05:15:15;;;;;;;16.75;11.25;;;;;;;19.72;100.00;99133.97;5064313;28;21211;-64
2022/07/21 05:17:41;;;;;;;15.50;10.90;;;;;;;20.01;100.00;99147.50;5063470;28;20094;-64
2022/07/21 05:20:07;;;;;;;17.60;11.13;;;;;;;20.22;100.00;99152.13;5060326;28;20492;-63
2022/07/21 05:22:32;;;;;;;17.35;10.13;;;;;;;20.33;100.00;99156.66;5067922;28;20036;-64
2022/07/21 05:24:58;;;;;;;14.43;10.32;;;;;;;20.63;100.00;99154.50;5064109;28;20111;-63
2022/07/21 05:27:23;;;;;;;12.23;10.38;;;;;;;20.92;100.00;99157.78;5064512;28;20021;-67
2022/07/21 05:29:48;;;;;;;13.75;9.50;;;;;;;21.06;100.00;99158.16;5061782;28;20024;-67
2022/07/21 05:32:14;;;;;;;14.45;10.55;;;;;;;20.81;100.00;99147.81;5077690;28;20028;-68
2022/07/21 05:34:39;;;;;;;13.95;10.43;;;;;;;20.66;100.00;99151.22;5074756;28;20032;-67
2022/07/21 05:37:05;;;;;;;14.20;9.85;;;;;;;20.52;100.00;99150.81;5067968;28;20036;-64
2022/07/21 05:39:31;;;;;;;14.88;11.35;;;;;;;20.42;100.00;99157.03;5063334;28;20031;-63
2022/07/21 05:41:56;;;;;;;16.02;10.73;;;;;;;20.62;100.00;99159.19;5057990;28;20104;-64
2022/07/21 05:44:21;;;;;;;13.52;10.55;;;;;;;20.87;100.00;99158.56;5066861;28;20025;-62
2022/07/21 05:46:47;;;;;;;15.30;11.18;;;;;;;21.39;100.00;99165.31;5066020;28;20013;-64
2022/07/21 05:49:12;;;;;;;13.18;10.43;;;;;;;21.82;100.00;99166.09;5057364;28;20051;-64
2022/07/21 05:51:37;;;;;;;16.30;9.75;;;;;;;22.22;100.00;99159.97;5069053;28;20097;-63
2022/07/21 05:54:03;;;;;;;11.95;10.27;;;;;;;22.30;100.00;99164.13;5064873;28;20034;-63
2022/07/21 05:56:28;;;;;;;14.77;9.35;;;;;;;22.26;100.00;99168.50;5069646;28;20028;-63
2022/07/21 05:58:53;;;;;;;14.68;10.10;;;;;;;22.34;100.00;99172.66;5056263;28;20032;-63
2022/07/21 06:01:18;;;;;;;12.65;9.77;;;;;;;22.33;100.00;99177.34;5062122;28;20028;-63
2022/07/21 06:03:46;;;;;;;15.20;10.35;;;;;;;22.02;100.00;99177.22;5061078;28;20103;-63
2022/07/21 06:06:13;;;;;;;15.02;10.13;;;;;;;22.17;100.00;99186.66;5057454;28;20059;-64
2022/07/21 06:08:41;;;;;;;14.27;9.85;;;;;;;22.10;100.00;99190.47;5060814;28;20025;-63
2022/07/21 06:11:08;;;;;;;11.40;9.70;;;;;;;21.84;100.00;99191.44;5058060;28;20025;-64
2022/07/21 06:13:33;;;;;;;11.80;9.73;;;;;;;21.62;100.00;99195.19;5059508;28;20036;-64
2022/07/21 06:15:59;;;;;;;13.05;10.27;;;;;;;21.60;100.00;99197.38;5060980;28;20020;-66
2022/07/21 06:18:24;;;;;;;20.00;11.13;;;;;;;21.47;100.00;99200.59;5066446;28;20123;-65
2022/07/21 06:20:50;;;;;;;13.48;9.77;;;;;;;21.60;100.00;99189.13;5066484;28;20024;-65
2022/07/21 06:23:15;;;;;;;13.43;10.68;;;;;;;22.00;100.00;99201.44;5057384;28;20385;-65
2022/07/21 06:25:41;;;;;;;12.35;9.25;;;;;;;22.70;100.00;99198.41;5061560;28;20718;-67
2022/07/21 06:28:06;;;;;;;15.73;10.10;;;;;;;22.92;100.00;99201.75;5065178;28;20028;-68
2022/07/21 06:30:32;;;;;;;16.42;10.10;;;;;;;23.29;100.00;99197.91;5065355;28;20623;-65
2022/07/21 06:32:57;;;;;;;14.57;10.30;;;;;;;23.97;100.00;99203.03;5067657;28;20021;-65
2022/07/21 06:35:23;;;;;;;12.75;8.77;;;;;;;24.24;100.00;99205.41;5065585;28;20028;-63
2022/07/21 06:37:48;;;;;;;14.05;9.02;;;;;;;23.91;100.00;99200.56;5072427;28;20378;-67
2022/07/21 06:40:14;;;;;;;11.80;9.95;;;;;;;23.78;100.00;99201.97;5073344;28;20032;-63
2022/07/21 06:42:39;;;;;;;10.93;9.25;;;;;;;23.60;100.00;99203.38;5074867;28;20115;-63
2022/07/21 06:45:05;;;;;;;15.85;10.27;;;;;;;23.27;100.00;99200.13;5072098;28;20020;-62
2022/07/21 06:47:30;;;;;;;12.43;9.00;;;;;;;23.50;100.00;99204.25;5070318;28;20057;-65
2022/07/21 06:49:55;;;;;;;13.85;9.52;;;;;;;23.83;100.00;99204.72;5061394;28;20068;-66
2022/07/21 06:52:21;;;;;;;12.60;8.95;;;;;;;24.17;100.00;99202.13;5064010;28;20031;-62
2022/07/21 06:54:46;;;;;;;11.90;10.05;;;;;;;23.72;100.00;99200.34;5062563;28;20731;-67
2022/07/21 06:57:13;;;;;;;11.00;9.27;;;;;;;23.95;100.00;99201.66;5060451;28;20060;-67
2022/07/21 06:59:38;;;;;;;12.90;9.02;;;;;;;23.97;100.00;99196.66;5064275;28;20029;-66
2022/07/21 07:02:03;;;;;;;11.77;8.93;;;;;;;24.95;98.03;99199.78;5063007;28;20032;-66
2022/07/21 07:04:29;;;;;;;13.45;8.32;;;;;;;27.99;67.71;99199.88;5073111;28;20129;-65
2022/07/21 07:06:55;;;;;;;10.48;7.28;;;;;;;30.02;57.39;99203.66;5069336;28;20020;-66
2022/07/21 07:09:20;;;;;;;9.85;7.55;;;;;;;30.46;53.59;99196.25;5069238;28;20028;-64
2022/07/21 07:11:46;;;;;;;12.70;7.60;;;;;;;31.93;51.90;99208.50;5071014;28;20089;-71
2022/07/21 07:14:13;;;;;;;10.23;7.10;;;;;;;30.79;52.58;99204.19;5063132;28;20021;-68
2022/07/21 07:16:39;;;;;;;9.75;7.10;;;;;;;31.16;51.87;99210.28;5062430;28;20474;-76
2022/07/21 07:19:04;;;;;;;8.77;6.07;;;;;;;31.63;51.16;99210.41;5067691;28;20039;-76
2022/07/21 07:21:29;;;;;;;9.88;7.15;;;;;;;32.60;47.93;99203.22;5065189;28;20020;-74
2022/07/21 07:23:55;;;;;;;7.80;5.60;;;;;;;33.30;44.65;99198.69;5065935;28;20040;-74
2022/07/21 07:26:20;;;;;;;8.05;5.53;;;;;;;31.70;47.46;99205.09;5060897;28;20024;-74
2022/07/21 07:28:45;;;;;;;6.80;5.07;;;;;;;33.69;43.77;99199.28;5067103;28;20021;-75
2022/07/21 07:31:10;;;;;;;7.93;4.95;;;;;;;33.08;43.19;99191.47;5072169;28;20036;-75
2022/07/21 07:33:36;;;;;;;7.18;5.00;;;;;;;32.95;43.24;99203.75;5070270;28;20040;-75
2022/07/21 07:36:01;;;;;;;6.63;4.93;;;;;;;32.94;43.53;99196.53;5061247;28;20028;-73
2022/07/21 07:38:26;;;;;;;6.90;4.45;;;;;;;35.18;38.39;99201.63;5066170;28;20055;-70
2022/07/21 07:40:52;;;;;;;7.88;5.38;;;;;;;34.21;39.53;99200.63;5062431;28;20028;-73
2022/07/21 07:43:17;;;;;;;12.25;5.30;;;;;;;34.19;39.92;99194.53;5069339;28;20027;-71
2022/07/21 07:45:43;;;;;;;7.93;4.85;;;;;;;32.69;42.61;99195.56;5068093;28;20485;-74
2022/07/21 07:48:08;;;;;;;7.28;4.57;;;;;;;34.45;41.55;99202.59;5058997;28;20091;-75
2022/07/21 07:50:33;;;;;;;7.15;4.38;;;;;;;34.99;38.11;99187.41;5059966;28;20032;-72
2022/07/21 07:52:59;;;;;;;6.97;4.25;;;;;;;36.48;35.79;99203.00;5062481;28;20028;-74
2022/07/21 07:55:24;;;;;;;4.65;3.40;;;;;;;34.45;37.84;99197.81;5068785;28;20020;-71
2022/07/21 07:57:49;;;;;;;5.38;3.85;;;;;;;31.36;41.78;99208.78;5071358;28;20089;-69
2022/07/21 08:00:17;;;;;;;5.95;3.63;;;;;;;28.89;46.99;99194.56;5067583;28;20112;-69
2022/07/21 08:02:42;;;;;;;7.03;4.22;;;;;;;26.83;53.74;99219.09;5067664;28;20735;-69
2022/07/21 08:05:08;;;;;;;7.32;4.10;;;;;;;26.81;55.23;99204.66;5064609;28;20028;-69
2022/07/21 08:07:35;;;;;;;10.60;4.47;;;;;;;30.62;46.03;99210.56;5069327;28;20078;-69
2022/07/21 08:10:00;;;;;;;5.15;4.10;;;;;;;32.30;40.48;99206.84;5064427;28;20025;-69
2022/07/21 08:12:26;;;;;;;6.18;4.03;;;;;;;31.32;42.41;99219.81;5055754;28;20024;-69
2022/07/21 08:14:51;;;;;;;8.27;4.32;;;;;;;31.93;42.18;99216.88;5058707;28;20055;-69
2022/07/21 08:17:16;;;;;;;7.25;4.13;;;;;;;35.82;37.18;99213.03;5055224;28;20029;-69
2022/07/21 08:19:43;;;;;;;6.20;3.70;;;;;;;35.84;35.41;99200.22;5061429;28;20040;-69
2022/07/21 08:22:08;;;;;;;5.50;4.10;;;;;;;33.21;39.31;99208.34;5061660;28;20059;-69
2022/07/21 08:24:34;;;;;;;8.55;4.65;;;;;;;34.23;38.70;99210.34;5058815;28;20472;-69
2022/07/21 08:26:59;;;;;;;5.40;3.85;;;;;;;33.61;37.25;99205.81;5057085;28;20576;-69
2022/07/21 08:29:24;;;;;;;6.65;4.18;;;;;;;33.50;39.52;99201.78;5059069;28;20032;-71
2022/07/21 08:31:50;;;;;;;4.95;3.80;;;;;;;31.90;41.40;99208.31;5059512;28;20097;-70
2022/07/21 08:34:15;;;;;;;6.78;4.43;;;;;;;32.53;40.63;99214.97;5063612;28;20036;-71
2022/07/21 08:36:40;;;;;;;7.00;4.18;;;;;;;30.75;43.61;99208.78;5060235;28;20028;-71
2022/07/21 08:39:05;;;;;;;7.10;4.40;;;;;;;29.83;47.18;99194.72;5057572;28;20021;-71
2022/07/21 08:41:36;;;;;;;7.72;4.32;;;;;;;31.57;43.57;99209.75;5065418;28;20454;-71
2022/07/21 08:44:01;;;;;;;7.95;4.38;;;;;;;31.76;43.52;99211.34;5066752;28;20031;-71
2022/07/21 08:46:28;;;;;;;5.97;4.40;;;;;;;31.82;42.29;99212.78;5061822;28;20016;-71
2022/07/21 08:48:53;;;;;;;8.63;4.70;;;;;;;30.88;44.00;99209.81;5054638;28;21543;-69
2022/07/21 08:51:19;;;;;;;5.75;4.10;;;;;;;31.19;43.71;99192.84;5059284;28;20044;-70
2022/07/21 08:53:48;;;;;;;8.32;4.65;;;;;;;31.78;43.72;99189.44;5064991;28;20024;-70
2022/07/21 08:56:13;;;;;;;5.45;4.35;;;;;;;33.17;40.21;99172.59;5061177;28;20037;-70
2022/07/21 08:58:39;;;;;;;6.43;4.10;;;;;;;35.31;36.91;99189.13;5062561;28;20039;-70
2022/07/21 09:01:04;;;;;;;4.90;4.35;;;;;;;35.63;34.96;99194.84;5064074;28;20494;-70
2022/07/21 09:03:30;;;;;;;7.22;4.10;;;;;;;36.85;34.78;99195.81;5055694;28;20429;-70
2022/07/21 09:06:01;;;;;;;7.57;4.22;;;;;;;36.97;32.97;99185.56;5056936;28;20463;-70
2022/07/21 09:08:34;;;;;;;8.10;4.10;;;;;;;37.59;33.19;99189.28;5057648;28;20028;-70
2022/07/21 09:11:22;;;;;;;4.72;3.75;;;;;;;37.81;31.79;99187.66;5061748;28;22233;-70
2022/07/21 09:14:06;;;;;;;6.85;3.90;;;;;;;38.31;31.02;99194.16;5060000;28;20107;-70
2022/07/21 09:16:43;;;;;;;5.22;3.33;;;;;;;39.55;29.78;99190.53;5064482;28;20436;-70
2022/07/21 09:19:17;;;;;;;5.43;3.50;;;;;;;37.67;31.26;99182.56;5057811;28;20024;-70
2022/07/21 09:21:42;;;;;;;5.25;3.22;;;;;;;35.80;33.76;99182.44;5047266;28;20531;-70
2022/07/21 09:24:21;;;;;;;5.60;3.60;;;;;;;37.67;31.95;99185.38;5059251;28;20024;-70
2022/07/21 09:27:12;;;;;;;5.47;3.60;;;;;;;35.18;34.26;99187.56;5063780;28;20020;-70
2022/07/21 09:29:46;;;;;;;3.75;2.80;;;;;;;33.11;37.80;99187.16;5057238;28;20021;-70
2022/07/21 09:32:12;;;;;;;6.88;3.80;;;;;;;31.52;39.77;99187.56;5056083;28;20025;-70
2022/07/21 09:34:37;;;;;;;4.65;3.80;;;;;;;31.47;41.35;99184.94;5056024;28;20028;-70
2022/07/21 09:37:05;;;;;;;7.93;3.90;;;;;;;30.85;41.59;99188.13;5060891;28;20061;-70
2022/07/21 09:39:41;;;;;;;7.55;4.03;;;;;;;28.97;45.60;99190.22;5055395;28;20289;-70
2022/07/21 09:42:18;;;;;;;8.63;3.88;;;;;;;30.32;43.60;99196.41;5065965;28;20032;-70
2022/07/21 09:44:46;;;;;;;4.65;3.83;;;;;;;29.16;44.22;99195.63;5056202;28;20510;-70
2022/07/21 09:47:13;;;;;;;3.97;3.27;;;;;;;30.57;42.51;99203.16;5056016;28;20024;-70
2022/07/21 09:49:40;;;;;;;5.35;3.60;;;;;;;30.88;41.61;99179.06;5058335;28;20037;-70
2022/07/21 09:52:25;;;;;;;7.53;4.30;;;;;;;29.43;44.68;99200.25;5054302;28;20523;-70
2022/07/21 09:54:53;;;;;;;7.43;4.07;;;;;;;30.65;42.71;99170.81;5065569;28;20339;-70
2022/07/21 09:57:19;;;;;;;5.88;3.67;;;;;;;30.46;41.92;99192.66;5064298;28;20123;-70
2022/07/21 09:59:47;;;;;;;5.60;3.33;;;;;;;30.45;43.33;99194.63;5064329;28;20085;-70
2022/07/21 10:02:19;;;;;;;6.15;3.40;;;;;;;33.92;36.74;99173.56;5064581;28;20036;-70
2022/07/21 10:04:46;;;;;;;4.43;2.95;;;;;;;36.17;34.75;99182.16;5071771;28;20028;-70
2022/07/21 10:07:13;;;;;;;5.95;3.40;;;;;;;37.83;31.95;99178.78;5067589;28;20042;-69
2022/07/21 10:09:39;;;;;;;4.25;2.80;;;;;;;38.83;30.98;99171.88;5058602;28;20686;-70
2022/07/21 10:12:05;;;;;;;6.68;3.83;;;;;;;38.86;29.69;99168.28;5056284;28;20040;-70
2022/07/21 10:14:30;;;;;;;4.28;2.78;;;;;;;37.35;30.54;99169.84;5057550;28;20020;-70
2022/07/21 10:16:56;;;;;;;3.17;2.58;;;;;;;36.64;31.46;99169.97;5054394;28;20033;-70
2022/07/21 10:19:28;;;;;;;4.43;2.85;;;;;;;35.21;32.92;99163.53;5065323;28;20039;-70
2022/07/21 10:22:15;;;;;;;3.53;2.78;;;;;;;35.16;33.63;99160.97;5048088;28;20029;-70
2022/07/21 10:24:42;;;;;;;4.67;3.23;;;;;;;33.83;35.34;99157.66;5060005;28;20356;-69
2022/07/21 10:27:10;;;;;;;4.25;2.53;;;;;;;32.23;37.34;99161.75;5057205;28;20413;-71
2022/07/21 10:29:48;;;;;;;7.10;2.88;;;;;;;32.49;37.55;99158.81;5056822;28;20068;-68
2022/07/21 10:32:19;;;;;;;4.57;2.80;;;;;;;33.37;35.91;99151.25;5052159;28;20041;-70
2022/07/21 10:34:44;;;;;;;7.18;3.45;;;;;;;33.97;35.49;99154.50;5064847;28;20137;-71
2022/07/21 10:37:10;;;;;;;4.03;2.95;;;;;;;33.71;35.18;99151.22;5063032;28;20486;-69
2022/07/21 10:39:38;;;;;;;4.32;3.03;;;;;;;32.80;36.65;99146.34;5066836;28;20145;-70
2022/07/21 10:42:15;;;;;;;5.03;3.30;;;;;;;33.94;35.47;99143.16;5068778;28;20479;-70
2022/07/21 10:44:47;;;;;;;5.05;2.80;;;;;;;35.75;32.89;99143.28;5069033;28;20312;-70
2022/07/21 10:47:20;;;;;;;5.45;3.08;;;;;;;33.41;35.44;99142.16;5060673;28;20040;-70
2022/07/21 10:49:56;;;;;;;3.88;2.80;;;;;;;33.11;36.49;99133.88;5058850;28;20067;-70
2022/07/21 10:52:41;;;;;;;4.40;3.15;;;;;;;33.87;34.91;99142.94;5070510;28;20039;-70
2022/07/21 10:55:09;;;;;;;4.07;2.80;;;;;;;32.18;37.31;99142.34;5063949;28;20024;-70
2022/07/21 10:57:36;;;;;;;4.90;3.00;;;;;;;33.93;35.43;99127.47;5056844;28;20712;-70
2022/07/21 11:00:28;;;;;;;3.25;2.63;;;;;;;34.96;33.07;99131.88;5057680;28;20036;-70
2022/07/21 11:02:55;;;;;;;4.78;3.00;;;;;;;34.38;34.86;99124.53;5060312;28;20736;-70
2022/07/21 11:05:21;;;;;;;3.45;2.72;;;;;;;33.87;34.81;99142.94;5060303;28;20125;-70
2022/07/21 11:08:10;;;;;;;3.38;2.22;;;;;;;32.44;36.00;99133.78;5059272;28;20020;-70
2022/07/21 11:10:37;;;;;;;3.42;2.33;;;;;;;32.37;35.25;99136.28;5055562;28;20163;-69
2022/07/21 11:13:02;;;;;;;3.47;2.42;;;;;;;31.53;36.12;99132.44;5060383;28;20032;-70
2022/07/21 11:15:48;;;;;;;4.45;2.88;;;;;;;31.40;37.17;99137.91;5059426;28;20020;-70
2022/07/21 11:18:21;;;;;;;3.83;2.60;;;;;;;33.80;34.63;99133.13;5061050;28;20487;-70
2022/07/21 11:21:08;;;;;;;10.07;2.60;;;;;;;35.83;30.48;99133.84;5062646;28;20163;-70